createdAt,value
2018-12-19T00:00:48.993Z,5.10
2018-12-19T00:01:54.573Z,5.10
2018-12-19T00:02:59.942Z,5.20
2018-12-19T00:04:05.424Z,5.20
2018-12-19T00:05:10.867Z,5.20
2018-12-19T00:06:16.288Z,5.20
2018-12-19T00:07:21.689Z,5.20
2018-12-19T00:08:27.176Z,5.20
2018-12-19T00:09:32.787Z,5.10
2018-12-19T00:10:38.368Z,5.10
2018-12-19T00:11:43.771Z,5.20
2018-12-19T00:12:49.150Z,5.20
2018-12-19T00:13:54.652Z,5.10
2018-12-19T00:15:00.191Z,5.20
2018-12-19T00:16:05.627Z,5.10
2018-12-19T00:17:11.101Z,5.10
2018-12-19T00:18:17.185Z,5.10
2018-12-19T00:19:22.668Z,5.20
2018-12-19T00:20:28.311Z,5.20
2018-12-19T00:21:33.710Z,5.10
2018-12-19T00:22:39.228Z,5.20
2018-12-19T00:23:44.683Z,5.10
2018-12-19T00:24:50.215Z,5.10
2018-12-19T00:25:55.728Z,5.10
2018-12-19T00:27:01.099Z,5.10
2018-12-19T00:28:06.699Z,5.10
2018-12-19T00:29:12.151Z,5.10
2018-12-19T00:30:17.574Z,5.10
2018-12-19T00:31:23.040Z,5.10
2018-12-19T00:32:29.108Z,5.10
2018-12-19T00:33:34.615Z,5.10
2018-12-19T00:34:40.056Z,5.20
2018-12-19T00:35:45.526Z,5.20
2018-12-19T00:36:50.911Z,5.10
2018-12-19T00:37:56.576Z,5.10
2018-12-19T00:39:02.036Z,5.10
2018-12-19T00:40:07.679Z,5.10
2018-12-19T00:41:13.213Z,5.10
2018-12-19T00:42:18.773Z,5.10
2018-12-19T00:43:24.427Z,5.10
2018-12-19T00:44:29.814Z,5.10
2018-12-19T00:45:35.322Z,5.10
2018-12-19T00:46:40.695Z,5.10
2018-12-19T00:47:46.208Z,5.10
2018-12-19T00:48:51.754Z,5.10
2018-12-19T00:49:57.284Z,5.00
2018-12-19T00:51:02.716Z,5.00
2018-12-19T00:52:08.218Z,5.00
2018-12-19T00:53:13.790Z,5.00
2018-12-19T00:54:19.422Z,5.00
2018-12-19T00:55:24.944Z,5.00
2018-12-19T00:56:30.318Z,5.00
2018-12-19T00:57:35.815Z,5.00
2018-12-19T00:58:41.346Z,5.00
2018-12-19T00:59:46.795Z,4.90
2018-12-19T01:00:52.283Z,5.00
2018-12-19T01:01:57.748Z,5.00
2018-12-19T01:03:03.147Z,5.00
2018-12-19T01:04:08.684Z,5.00
2018-12-19T01:05:14.279Z,5.00
2018-12-19T01:06:19.801Z,5.00
2018-12-19T01:07:25.180Z,5.00
2018-12-19T01:08:30.692Z,5.00
2018-12-19T01:09:36.201Z,5.00
2018-12-19T01:10:41.671Z,5.00
2018-12-19T01:11:47.087Z,5.00
2018-12-19T01:12:52.498Z,5.00
2018-12-19T01:13:57.950Z,5.00
2018-12-19T01:15:03.612Z,5.10
2018-12-19T01:16:09.135Z,5.10
2018-12-19T01:17:14.747Z,5.10
2018-12-19T01:18:20.182Z,5.00
2018-12-19T01:19:25.566Z,5.00
2018-12-19T01:20:30.951Z,5.10
2018-12-19T01:21:36.514Z,5.00
2018-12-19T01:22:41.958Z,5.10
2018-12-19T01:23:47.412Z,5.10
2018-12-19T01:24:52.947Z,5.00
2018-12-19T01:25:58.566Z,5.00
2018-12-19T01:27:04.104Z,5.00
2018-12-19T01:28:09.647Z,5.00
2018-12-19T01:29:15.088Z,5.00
2018-12-19T01:30:20.510Z,5.00
2018-12-19T01:31:26.086Z,5.00
2018-12-19T01:32:31.629Z,5.00
2018-12-19T01:33:37.200Z,5.10
2018-12-19T01:34:42.562Z,5.10
2018-12-19T01:35:48.070Z,5.10
2018-12-19T01:36:53.733Z,5.10
2018-12-19T01:37:59.179Z,5.20
2018-12-19T01:39:07.530Z,5.20
2018-12-19T01:40:13.168Z,5.10
2018-12-19T01:41:18.752Z,5.10
2018-12-19T01:42:24.231Z,5.20
2018-12-19T01:43:29.837Z,5.20
2018-12-19T01:44:35.355Z,5.20
2018-12-19T01:45:40.899Z,5.20
2018-12-19T01:46:53.019Z,5.20
2018-12-19T01:47:58.531Z,5.20
2018-12-19T01:49:03.913Z,5.20
2018-12-19T01:50:09.446Z,5.10
2018-12-19T01:51:15.016Z,5.10
2018-12-19T01:52:20.432Z,5.20
2018-12-19T01:53:25.807Z,5.20
2018-12-19T01:54:31.191Z,5.20
2018-12-19T01:55:36.619Z,5.10
2018-12-19T01:56:42.032Z,5.10
2018-12-19T01:57:47.476Z,5.20
2018-12-19T01:58:52.910Z,5.10
2018-12-19T01:59:58.328Z,5.10
2018-12-19T02:01:03.883Z,5.10
2018-12-19T02:02:09.314Z,5.10
2018-12-19T02:03:14.723Z,5.10
2018-12-19T02:04:20.166Z,5.10
2018-12-19T02:05:25.646Z,5.20
2018-12-19T02:06:31.073Z,5.20
2018-12-19T02:07:36.522Z,5.10
2018-12-19T02:08:41.912Z,5.10
2018-12-19T02:09:47.322Z,5.10
2018-12-19T02:10:52.818Z,5.10
2018-12-19T02:11:58.447Z,5.10
2018-12-19T02:13:03.847Z,5.10
2018-12-19T02:14:09.299Z,5.10
2018-12-19T02:15:14.676Z,5.10
2018-12-19T02:16:20.047Z,5.10
2018-12-19T02:17:25.650Z,5.10
2018-12-19T02:18:31.060Z,5.10
2018-12-19T02:19:36.570Z,5.10
2018-12-19T02:20:41.939Z,5.10
2018-12-19T02:21:47.332Z,5.10
2018-12-19T02:22:52.721Z,5.10
2018-12-19T02:23:58.168Z,5.10
2018-12-19T02:25:03.935Z,5.10
2018-12-19T02:26:09.361Z,5.10
2018-12-19T02:27:14.787Z,5.10
2018-12-19T02:28:20.288Z,5.10
2018-12-19T02:29:25.683Z,5.10
2018-12-19T02:30:31.061Z,5.10
2018-12-19T02:31:36.559Z,5.00
2018-12-19T02:32:42.001Z,5.00
2018-12-19T02:33:47.477Z,5.00
2018-12-19T02:34:52.889Z,5.00
2018-12-19T02:35:58.268Z,5.00
2018-12-19T02:37:03.731Z,5.00
2018-12-19T02:38:09.131Z,5.00
2018-12-19T02:39:14.663Z,5.00
2018-12-19T02:40:20.067Z,5.00
2018-12-19T02:41:25.527Z,5.00
2018-12-19T02:42:30.896Z,5.00
2018-12-19T02:43:36.350Z,5.00
2018-12-19T02:44:41.769Z,5.00
2018-12-19T02:45:47.179Z,5.00
2018-12-19T02:46:52.601Z,5.00
2018-12-19T02:47:58.017Z,5.00
2018-12-19T02:49:03.636Z,5.00
2018-12-19T02:50:09.243Z,5.00
2018-12-19T02:51:14.633Z,5.00
2018-12-19T02:52:20.032Z,5.00
2018-12-19T02:53:25.407Z,5.00
2018-12-19T02:54:30.806Z,5.10
2018-12-19T02:55:36.219Z,5.10
2018-12-19T02:56:41.611Z,5.10
2018-12-19T02:57:47.005Z,5.10
2018-12-19T02:58:52.399Z,5.10
2018-12-19T02:59:58.031Z,5.10
2018-12-19T03:01:03.403Z,5.10
2018-12-19T03:02:08.776Z,5.10
2018-12-19T03:03:14.220Z,5.10
2018-12-19T03:04:19.672Z,5.10
2018-12-19T03:05:25.075Z,5.10
2018-12-19T03:06:30.493Z,5.10
2018-12-19T03:07:35.986Z,5.10
2018-12-19T03:08:41.371Z,5.10
2018-12-19T03:09:46.783Z,5.20
2018-12-19T03:10:52.225Z,5.10
2018-12-19T03:11:57.693Z,5.10
2018-12-19T03:13:03.086Z,5.10
2018-12-19T03:14:08.461Z,5.10
2018-12-19T03:15:13.862Z,5.10
2018-12-19T03:16:19.372Z,5.20
2018-12-19T03:17:24.754Z,5.20
2018-12-19T03:18:30.156Z,5.20
2018-12-19T03:19:35.547Z,5.20
2018-12-19T03:20:40.913Z,5.20
2018-12-19T03:21:46.470Z,5.30
2018-12-19T03:22:51.930Z,5.30
2018-12-19T03:23:57.311Z,5.30
2018-12-19T03:25:02.745Z,5.30
2018-12-19T03:26:08.155Z,5.30
2018-12-19T03:27:13.551Z,5.30
2018-12-19T03:28:18.980Z,5.30
2018-12-19T03:29:24.403Z,5.30
2018-12-19T03:30:29.845Z,5.40
2018-12-19T03:31:35.276Z,5.40
2018-12-19T03:32:47.613Z,5.40
2018-12-19T03:33:52.983Z,5.40
2018-12-19T03:34:58.371Z,5.40
2018-12-19T03:36:03.943Z,5.50
2018-12-19T03:37:09.317Z,5.50
2018-12-19T03:38:18.895Z,5.60
2018-12-19T03:39:24.322Z,5.60
2018-12-19T03:40:29.723Z,5.70
2018-12-19T03:41:35.382Z,5.60
2018-12-19T03:42:40.932Z,5.70
2018-12-19T03:43:46.411Z,5.70
2018-12-19T03:44:51.862Z,5.70
2018-12-19T03:45:57.453Z,5.70
2018-12-19T03:47:02.869Z,5.70
2018-12-19T03:49:33.045Z,5.80
2018-12-19T03:50:38.420Z,5.80
2018-12-19T03:51:43.998Z,5.80
2018-12-19T03:52:50.063Z,5.90
2018-12-19T03:53:55.980Z,5.80
2018-12-19T03:55:01.460Z,5.80
2018-12-19T03:56:06.913Z,5.80
2018-12-19T03:57:12.598Z,5.90
2018-12-19T03:58:18.007Z,5.90
2018-12-19T03:59:23.445Z,5.90
2018-12-19T04:00:28.886Z,5.80
2018-12-19T04:01:34.351Z,5.80
2018-12-19T04:02:39.730Z,5.80
2018-12-19T04:03:45.198Z,5.90
2018-12-19T04:04:50.559Z,5.90
2018-12-19T04:05:55.982Z,5.90
2018-12-19T04:07:01.397Z,5.90
2018-12-19T04:08:06.946Z,6.00
2018-12-19T04:09:12.369Z,5.90
2018-12-19T04:10:18.134Z,5.90
2018-12-19T04:11:23.598Z,5.90
2018-12-19T04:12:29.000Z,5.90
2018-12-19T04:13:34.423Z,5.90
2018-12-19T04:14:39.817Z,5.90
2018-12-19T04:15:45.269Z,5.90
2018-12-19T04:16:50.675Z,5.90
2018-12-19T04:17:56.228Z,5.80
2018-12-19T04:19:01.635Z,5.90
2018-12-19T04:20:07.338Z,5.80
2018-12-19T04:21:12.812Z,5.80
2018-12-19T04:22:18.298Z,5.80
2018-12-19T04:23:23.799Z,5.80
2018-12-19T04:24:29.219Z,5.90
2018-12-19T04:25:34.588Z,5.90
2018-12-19T04:26:39.998Z,5.80
2018-12-19T04:27:45.395Z,5.90
2018-12-19T04:28:50.823Z,5.90
2018-12-19T04:29:56.222Z,5.80
2018-12-19T04:31:01.651Z,5.80
2018-12-19T04:32:07.085Z,5.80
2018-12-19T04:33:12.440Z,5.80
2018-12-19T04:34:17.882Z,5.80
2018-12-19T04:35:23.268Z,5.80
2018-12-19T04:36:28.672Z,5.80
2018-12-19T04:37:34.264Z,5.80
2018-12-19T04:38:39.887Z,5.80
2018-12-19T04:39:45.273Z,5.70
2018-12-19T04:40:50.816Z,5.80
2018-12-19T04:41:56.248Z,5.80
2018-12-19T04:43:01.829Z,5.70
2018-12-19T04:44:07.312Z,5.80
2018-12-19T04:45:12.673Z,5.80
2018-12-19T04:46:18.049Z,5.80
2018-12-19T04:47:23.447Z,5.80
2018-12-19T04:48:28.892Z,5.80
2018-12-19T04:49:34.302Z,5.80
2018-12-19T04:50:39.828Z,5.80
2018-12-19T04:51:45.236Z,5.70
2018-12-19T04:52:50.623Z,5.80
2018-12-19T04:53:56.017Z,5.70
2018-12-19T04:55:01.441Z,5.70
2018-12-19T04:56:06.937Z,5.70
2018-12-19T04:57:12.344Z,5.70
2018-12-19T04:58:18.010Z,5.70
2018-12-19T04:59:23.836Z,5.70
2018-12-19T05:00:29.262Z,5.70
2018-12-19T05:01:34.724Z,5.70
2018-12-19T05:02:40.367Z,5.70
2018-12-19T05:03:45.807Z,5.70
2018-12-19T05:04:51.188Z,5.70
2018-12-19T05:05:56.725Z,5.60
2018-12-19T05:07:02.144Z,5.70
2018-12-19T05:08:07.658Z,5.70
2018-12-19T05:09:13.225Z,5.60
2018-12-19T05:10:19.183Z,5.70
2018-12-19T05:11:24.691Z,5.60
2018-12-19T05:12:30.087Z,5.60
2018-12-19T05:13:35.525Z,5.60
2018-12-19T05:14:41.168Z,5.60
2018-12-19T05:15:46.740Z,5.60
2018-12-19T05:16:52.191Z,5.60
2018-12-19T05:17:57.847Z,5.60
2018-12-19T05:19:03.251Z,5.60
2018-12-19T05:20:11.958Z,5.60
2018-12-19T05:21:17.391Z,5.60
2018-12-19T05:22:23.154Z,5.60
2018-12-19T05:23:28.569Z,5.60
2018-12-19T05:24:33.963Z,5.60
2018-12-19T05:25:39.416Z,5.60
2018-12-19T05:26:44.841Z,5.60
2018-12-19T05:27:50.288Z,5.60
2018-12-19T05:28:55.668Z,5.60
2018-12-19T05:30:01.173Z,5.60
2018-12-19T05:31:06.557Z,5.60
2018-12-19T05:32:11.939Z,5.60
2018-12-19T05:33:17.411Z,5.60
2018-12-19T05:34:22.816Z,5.60
2018-12-19T05:35:28.234Z,5.60
2018-12-19T05:36:33.669Z,5.60
2018-12-19T05:37:39.054Z,5.60
2018-12-19T05:38:44.516Z,5.60
2018-12-19T05:39:49.958Z,5.70
2018-12-19T05:40:55.383Z,5.70
2018-12-19T05:42:00.853Z,5.70
2018-12-19T05:43:06.292Z,5.70
2018-12-19T05:44:11.687Z,5.80
2018-12-19T05:45:17.152Z,5.80
2018-12-19T05:46:22.706Z,5.80
2018-12-19T05:47:28.213Z,5.80
2018-12-19T05:48:33.602Z,5.80
2018-12-19T05:49:39.347Z,5.80
2018-12-19T05:50:44.732Z,5.80
2018-12-19T05:51:50.329Z,5.80
2018-12-19T05:52:55.722Z,5.90
2018-12-19T05:54:01.190Z,5.80
2018-12-19T05:55:07.415Z,5.90
2018-12-19T05:56:12.791Z,5.90
2018-12-19T05:57:18.435Z,5.90
2018-12-19T05:58:23.856Z,5.90
2018-12-19T05:59:29.248Z,5.80
2018-12-19T06:00:34.996Z,5.90
2018-12-19T06:01:40.515Z,5.90
2018-12-19T06:02:45.920Z,5.90
2018-12-19T06:03:51.360Z,5.90
2018-12-19T06:04:56.772Z,5.90
2018-12-19T06:06:02.173Z,5.90
2018-12-19T06:07:07.603Z,5.80
2018-12-19T06:08:12.975Z,5.90
2018-12-19T06:09:18.577Z,5.90
2018-12-19T06:10:26.262Z,5.80
2018-12-19T06:11:31.348Z,5.90
2018-12-19T06:12:36.975Z,5.80
2018-12-19T06:13:42.403Z,5.90
2018-12-19T06:14:47.884Z,5.90
2018-12-19T06:15:53.618Z,5.90
2018-12-19T06:16:59.043Z,5.90
2018-12-19T06:18:04.461Z,5.90
2018-12-19T06:19:10.334Z,5.90
2018-12-19T06:20:16.771Z,5.80
2018-12-19T06:21:22.815Z,5.90
2018-12-19T06:22:28.336Z,5.90
2018-12-19T06:23:33.869Z,5.90
2018-12-19T06:24:39.517Z,5.90
2018-12-19T06:25:46.539Z,5.90
2018-12-19T06:26:52.355Z,5.90
2018-12-19T06:27:57.854Z,6.00
2018-12-19T06:29:03.324Z,5.90
2018-12-19T06:30:09.018Z,6.00
2018-12-19T06:31:14.506Z,6.10
2018-12-19T06:32:20.098Z,6.10
2018-12-19T06:33:25.566Z,6.10
2018-12-19T06:34:30.935Z,6.10
2018-12-19T06:35:36.441Z,6.10
2018-12-19T06:36:42.036Z,6.00
2018-12-19T06:37:47.499Z,6.10
2018-12-19T06:38:52.903Z,6.10
2018-12-19T06:39:58.299Z,6.00
2018-12-19T06:41:03.725Z,6.00
2018-12-19T06:42:09.380Z,6.00
2018-12-19T06:43:14.778Z,6.00
2018-12-19T06:44:20.252Z,6.00
2018-12-19T06:45:25.742Z,6.00
2018-12-19T06:46:31.149Z,5.90
2018-12-19T06:47:36.669Z,5.90
2018-12-19T06:48:42.124Z,5.90
2018-12-19T06:49:47.495Z,5.90
2018-12-19T06:50:52.888Z,5.90
2018-12-19T06:51:58.384Z,5.90
2018-12-19T06:53:03.951Z,5.90
2018-12-19T06:54:09.391Z,5.90
2018-12-19T06:55:14.981Z,5.90
2018-12-19T06:56:20.364Z,5.90
2018-12-19T06:57:26.348Z,5.90
2018-12-19T06:58:31.950Z,5.90
2018-12-19T06:59:37.328Z,5.90
2018-12-19T07:00:42.807Z,5.90
2018-12-19T07:01:48.293Z,5.90
2018-12-19T07:02:53.778Z,5.90
2018-12-19T07:03:59.189Z,5.90
2018-12-19T07:05:05.091Z,5.90
2018-12-19T07:06:10.488Z,5.90
2018-12-19T07:07:15.942Z,5.90
2018-12-19T07:08:23.323Z,5.90
2018-12-19T07:09:28.875Z,5.90
2018-12-19T07:10:39.053Z,5.90
2018-12-19T07:11:41.698Z,5.90
2018-12-19T07:12:47.107Z,5.90
2018-12-19T07:13:52.830Z,5.90
2018-12-19T07:14:58.290Z,5.90
2018-12-19T07:16:03.722Z,5.90
2018-12-19T07:17:09.383Z,5.90
2018-12-19T07:18:14.790Z,5.90
2018-12-19T07:19:20.202Z,5.90
2018-12-19T07:20:25.784Z,5.90
2018-12-19T07:21:31.236Z,5.90
2018-12-19T07:22:36.720Z,5.90
2018-12-19T07:23:42.130Z,6.00
2018-12-19T07:24:47.639Z,5.90
2018-12-19T07:25:53.187Z,6.00
2018-12-19T07:26:58.633Z,6.00
2018-12-19T07:28:04.172Z,6.00
2018-12-19T07:29:09.690Z,6.00
2018-12-19T07:30:15.123Z,6.00
2018-12-19T07:31:20.700Z,6.00
2018-12-19T07:32:26.104Z,6.00
2018-12-19T07:33:31.515Z,6.00
2018-12-19T07:34:36.895Z,6.00
2018-12-19T07:35:42.309Z,6.00
2018-12-19T07:36:47.782Z,6.10
2018-12-19T07:37:53.186Z,6.10
2018-12-19T07:38:59.065Z,6.10
2018-12-19T07:40:05.233Z,6.10
2018-12-19T07:41:10.625Z,6.10
2018-12-19T07:42:16.224Z,6.10
2018-12-19T07:43:21.684Z,6.10
2018-12-19T07:44:27.105Z,6.10
2018-12-19T07:45:32.584Z,6.10
2018-12-19T07:46:38.087Z,6.10
2018-12-19T07:47:43.514Z,6.10
2018-12-19T07:48:48.938Z,6.10
2018-12-19T07:49:54.344Z,6.10
2018-12-19T07:50:59.852Z,6.20
2018-12-19T07:52:05.376Z,6.20
2018-12-19T07:53:11.140Z,6.20
2018-12-19T07:54:16.576Z,6.10
2018-12-19T07:55:21.986Z,6.20
2018-12-19T07:56:27.819Z,6.20
2018-12-19T07:57:33.295Z,6.20
2018-12-19T07:58:38.700Z,6.20
2018-12-19T07:59:44.140Z,6.20
2018-12-19T08:00:49.557Z,6.20
2018-12-19T08:01:54.975Z,6.20
2018-12-19T08:03:00.508Z,6.20
2018-12-19T08:04:06.447Z,6.20
2018-12-19T08:05:11.841Z,6.20
2018-12-19T08:06:17.429Z,6.20
2018-12-19T08:07:22.879Z,6.30
2018-12-19T08:08:28.250Z,6.30
2018-12-19T08:09:33.832Z,6.20
2018-12-19T08:10:39.200Z,6.30
2018-12-19T08:11:44.596Z,6.30
2018-12-19T08:12:50.711Z,6.30
2018-12-19T08:13:56.113Z,6.30
2018-12-19T08:15:03.894Z,6.30
2018-12-19T08:16:09.359Z,6.30
2018-12-19T08:17:14.899Z,6.30
2018-12-19T08:18:20.423Z,6.30
2018-12-19T08:19:25.810Z,6.30
2018-12-19T08:20:31.227Z,6.30
2018-12-19T08:21:36.856Z,6.30
2018-12-19T08:22:42.231Z,6.30
2018-12-19T08:23:47.821Z,6.30
2018-12-19T08:24:53.543Z,6.40
2018-12-19T08:25:59.113Z,6.40
2018-12-19T08:27:04.566Z,6.30
2018-12-19T08:28:09.961Z,6.30
2018-12-19T08:29:15.357Z,6.40
2018-12-19T08:30:21.123Z,6.40
2018-12-19T08:31:26.693Z,6.40
2018-12-19T08:32:32.127Z,6.40
2018-12-19T08:33:37.942Z,6.40
2018-12-19T08:34:43.501Z,6.40
2018-12-19T08:35:49.853Z,6.40
2018-12-19T08:36:55.407Z,6.40
2018-12-19T08:38:00.815Z,6.40
2018-12-19T08:39:07.982Z,6.40
2018-12-19T08:40:13.390Z,6.40
2018-12-19T08:41:18.866Z,6.40
2018-12-19T08:42:24.395Z,6.40
2018-12-19T08:43:29.798Z,6.40
2018-12-19T08:44:35.228Z,6.40
2018-12-19T08:45:40.969Z,6.50
2018-12-19T08:46:46.443Z,6.50
2018-12-19T08:47:52.130Z,6.50
2018-12-19T08:48:57.941Z,6.50
2018-12-19T08:50:03.499Z,6.50
2018-12-19T08:51:08.931Z,6.60
2018-12-19T08:52:14.319Z,6.50
2018-12-19T08:53:19.820Z,6.50
2018-12-19T08:54:25.387Z,6.60
2018-12-19T08:55:30.790Z,6.60
2018-12-19T08:56:36.232Z,6.60
2018-12-19T08:57:41.898Z,6.60
2018-12-19T08:58:47.296Z,6.60
2018-12-19T08:59:52.687Z,6.60
2018-12-19T09:00:58.181Z,6.60
2018-12-19T09:02:03.626Z,6.70
2018-12-19T09:03:09.323Z,6.70
2018-12-19T09:04:14.783Z,6.70
2018-12-19T09:06:37.204Z,6.70
2018-12-19T09:07:42.587Z,6.70
2018-12-19T09:08:48.036Z,6.70
2018-12-19T09:09:53.500Z,6.70
2018-12-19T09:11:05.480Z,6.70
2018-12-19T09:12:06.350Z,6.80
2018-12-19T09:13:11.731Z,6.80
2018-12-19T09:14:17.218Z,6.70
2018-12-19T09:15:27.942Z,6.80
2018-12-19T09:16:33.460Z,6.80
2018-12-19T09:17:38.918Z,6.80
2018-12-19T09:18:44.317Z,6.80
2018-12-19T09:19:50.061Z,6.80
2018-12-19T09:20:55.508Z,6.80
2018-12-19T09:22:01.365Z,6.80
2018-12-19T09:23:06.756Z,6.80
2018-12-19T09:24:12.191Z,6.80
2018-12-19T09:25:17.887Z,6.80
2018-12-19T09:26:23.303Z,6.80
2018-12-19T09:27:28.994Z,6.80
2018-12-19T09:28:34.448Z,6.90
2018-12-19T09:29:39.809Z,6.80
2018-12-19T09:30:45.263Z,6.90
2018-12-19T09:31:50.902Z,6.90
2018-12-19T09:32:56.355Z,6.90
2018-12-19T09:34:01.744Z,6.90
2018-12-19T09:35:07.338Z,6.90
2018-12-19T09:36:12.767Z,7.00
2018-12-19T09:37:18.392Z,6.90
2018-12-19T09:38:23.886Z,6.90
2018-12-19T09:39:29.344Z,7.00
2018-12-19T09:40:35.112Z,7.00
2018-12-19T09:41:40.591Z,7.00
2018-12-19T09:42:46.029Z,7.10
2018-12-19T09:43:51.442Z,7.10
2018-12-19T09:44:56.832Z,7.10
2018-12-19T09:46:02.311Z,7.10
2018-12-19T09:47:07.713Z,7.10
2018-12-19T09:48:13.116Z,7.10
2018-12-19T09:49:18.644Z,7.10
2018-12-19T09:50:24.206Z,7.10
2018-12-19T09:51:29.646Z,7.10
2018-12-19T09:52:35.034Z,7.10
2018-12-19T09:53:40.482Z,7.10
2018-12-19T09:54:46.418Z,7.20
2018-12-19T09:55:51.823Z,7.10
2018-12-19T09:56:57.417Z,7.10
2018-12-19T09:58:02.830Z,7.20
2018-12-19T09:59:08.375Z,7.20
2018-12-19T10:00:19.194Z,7.20
2018-12-19T10:01:24.607Z,7.20
2018-12-19T10:02:30.147Z,7.20
2018-12-19T10:03:35.873Z,7.20
2018-12-19T10:04:41.260Z,7.20
2018-12-19T10:05:46.682Z,7.20
2018-12-19T10:06:52.098Z,7.20
2018-12-19T10:07:57.540Z,7.30
2018-12-19T10:09:04.645Z,7.30
2018-12-19T10:10:10.056Z,7.30
2018-12-19T10:11:18.707Z,7.30
2018-12-19T10:12:22.975Z,7.30
2018-12-19T10:13:28.456Z,7.30
2018-12-19T10:14:33.855Z,7.40
2018-12-19T10:15:39.301Z,7.40
2018-12-19T10:16:44.805Z,7.40
2018-12-19T10:17:50.202Z,7.40
2018-12-19T10:18:55.627Z,7.40
2018-12-19T10:20:01.137Z,7.40
2018-12-19T10:21:06.575Z,7.40
2018-12-19T10:22:14.063Z,7.40
2018-12-19T10:23:19.463Z,7.50
2018-12-19T10:24:29.016Z,7.40
2018-12-19T10:25:34.427Z,7.50
2018-12-19T10:26:39.851Z,7.50
2018-12-19T10:27:45.334Z,7.50
2018-12-19T10:28:50.711Z,7.50
2018-12-19T10:29:56.453Z,7.50
2018-12-19T10:31:01.983Z,7.50
2018-12-19T10:32:07.444Z,7.50
2018-12-19T10:33:12.875Z,7.60
2018-12-19T10:34:18.266Z,7.60
2018-12-19T10:35:24.809Z,7.60
2018-12-19T10:36:35.462Z,7.60
2018-12-19T10:37:40.954Z,7.60
2018-12-19T10:38:46.343Z,7.60
2018-12-19T10:39:51.854Z,7.60
2018-12-19T10:40:57.284Z,7.70
2018-12-19T10:42:02.764Z,7.70
2018-12-19T10:43:08.159Z,7.70
2018-12-19T10:44:13.943Z,7.70
2018-12-19T10:45:19.696Z,7.80
2018-12-19T10:46:25.076Z,7.80
2018-12-19T10:47:30.499Z,7.70
2018-12-19T10:48:35.946Z,7.80
2018-12-19T10:49:41.349Z,7.80
2018-12-19T10:50:46.759Z,7.80
2018-12-19T10:51:52.159Z,7.80
2018-12-19T10:54:16.972Z,7.90
2018-12-19T10:55:22.373Z,8.00
2018-12-19T10:56:27.781Z,8.00
2018-12-19T10:57:33.159Z,7.90
2018-12-19T10:58:38.802Z,7.90
2018-12-19T10:59:44.273Z,7.90
2018-12-19T11:00:54.946Z,7.90
2018-12-19T11:02:00.371Z,8.00
2018-12-19T11:03:05.773Z,7.90
2018-12-19T11:04:11.335Z,8.00
2018-12-19T11:05:16.816Z,8.00
2018-12-19T11:06:22.248Z,8.00
2018-12-19T11:07:27.656Z,8.00
2018-12-19T11:08:33.092Z,8.00
2018-12-19T11:09:38.671Z,7.90
2018-12-19T11:10:45.163Z,8.00
2018-12-19T11:11:50.722Z,8.00
2018-12-19T11:12:56.143Z,8.00
2018-12-19T11:14:01.654Z,8.00
2018-12-19T11:15:10.391Z,8.00
2018-12-19T11:16:15.812Z,7.90
2018-12-19T11:17:21.229Z,8.00
2018-12-19T11:18:26.743Z,8.00
2018-12-19T11:19:32.300Z,8.00
2018-12-19T11:20:37.729Z,8.00
2018-12-19T11:21:43.134Z,7.90
2018-12-19T11:22:49.107Z,7.90
2018-12-19T11:23:54.581Z,7.90
2018-12-19T11:25:00.118Z,8.00
2018-12-19T11:26:05.619Z,8.00
2018-12-19T11:27:11.123Z,7.90
2018-12-19T11:28:16.537Z,7.90
2018-12-19T11:29:21.960Z,7.80
2018-12-19T11:30:27.383Z,8.00
2018-12-19T11:31:32.862Z,7.90
2018-12-19T11:32:38.328Z,7.90
2018-12-19T11:33:44.129Z,7.90
2018-12-19T11:34:49.542Z,7.90
2018-12-19T11:35:54.944Z,7.90
2018-12-19T11:37:06.868Z,7.90
2018-12-19T11:38:12.315Z,7.90
2018-12-19T11:39:19.289Z,7.90
2018-12-19T11:40:24.706Z,7.90
2018-12-19T11:41:30.149Z,8.00
2018-12-19T11:42:35.796Z,7.90
2018-12-19T11:43:41.387Z,8.00
2018-12-19T11:44:46.805Z,8.00
2018-12-19T11:45:52.287Z,8.00
2018-12-19T11:46:57.699Z,8.00
2018-12-19T11:48:03.319Z,8.00
2018-12-19T11:49:08.885Z,8.10
2018-12-19T11:50:14.244Z,8.10
2018-12-19T11:51:19.720Z,8.10
2018-12-19T11:52:25.159Z,8.10
2018-12-19T11:53:30.715Z,8.10
2018-12-19T11:54:36.112Z,8.20
2018-12-19T11:55:41.487Z,8.20
2018-12-19T11:56:46.985Z,8.10
2018-12-19T11:57:52.363Z,8.20
2018-12-19T11:58:57.845Z,8.20
2018-12-19T12:00:03.448Z,8.20
2018-12-19T12:01:08.919Z,8.20
2018-12-19T12:02:14.353Z,8.20
2018-12-19T12:03:19.950Z,8.20
2018-12-19T12:04:25.701Z,8.20
2018-12-19T12:05:31.074Z,8.30
2018-12-19T12:06:36.663Z,8.20
2018-12-19T12:07:42.015Z,8.20
2018-12-19T12:08:51.306Z,8.20
2018-12-19T12:10:03.922Z,8.30
2018-12-19T12:11:09.751Z,8.20
2018-12-19T12:12:21.958Z,8.20
2018-12-19T12:13:30.162Z,8.20
2018-12-19T12:14:41.024Z,8.20
2018-12-19T12:15:47.694Z,8.20
2018-12-19T12:16:59.114Z,8.20
2018-12-19T12:18:04.860Z,8.20
2018-12-19T12:19:10.235Z,8.20
2018-12-19T12:20:15.687Z,8.20
2018-12-19T12:21:21.261Z,8.20
2018-12-19T12:22:26.631Z,8.20
2018-12-19T12:23:32.605Z,8.20
2018-12-19T12:24:39.775Z,8.20
2018-12-19T12:25:46.012Z,8.20
2018-12-19T12:26:56.133Z,8.20
2018-12-19T12:28:01.510Z,8.20
2018-12-19T12:29:06.923Z,8.20
2018-12-19T12:30:12.562Z,8.20
2018-12-19T12:31:18.297Z,8.20
2018-12-19T12:32:23.739Z,8.20
2018-12-19T12:33:29.147Z,8.20
2018-12-19T12:34:34.576Z,8.20
2018-12-19T12:35:40.075Z,8.20
2018-12-19T12:36:45.503Z,8.30
2018-12-19T12:37:50.889Z,8.30
2018-12-19T12:38:56.420Z,8.30
2018-12-19T12:40:01.839Z,8.30
2018-12-19T12:41:07.620Z,8.30
2018-12-19T12:42:13.095Z,8.30
2018-12-19T12:43:18.602Z,8.30
2018-12-19T12:44:24.268Z,8.30
2018-12-19T12:45:29.692Z,8.30
2018-12-19T12:46:35.070Z,8.30
2018-12-19T12:47:40.752Z,8.30
2018-12-19T12:48:46.679Z,8.30
2018-12-19T12:49:52.436Z,8.30
2018-12-19T12:50:57.843Z,8.40
2018-12-19T12:52:03.284Z,8.40
2018-12-19T12:53:09.292Z,8.40
2018-12-19T12:54:14.680Z,8.40
2018-12-19T12:55:20.132Z,8.40
2018-12-19T12:56:25.509Z,8.40
2018-12-19T12:57:30.919Z,8.50
2018-12-19T12:58:36.463Z,8.50
2018-12-19T12:59:42.143Z,8.50
2018-12-19T13:00:47.532Z,8.50
2018-12-19T13:01:52.911Z,8.50
2018-12-19T13:02:58.321Z,8.50
2018-12-19T13:04:03.908Z,8.50
2018-12-19T13:05:09.472Z,8.60
2018-12-19T13:06:14.908Z,8.60
2018-12-19T13:07:20.662Z,8.60
2018-12-19T13:08:26.135Z,8.60
2018-12-19T13:09:31.790Z,8.70
2018-12-19T13:10:37.167Z,8.70
2018-12-19T13:11:42.604Z,8.70
2018-12-19T13:12:47.971Z,8.70
2018-12-19T13:13:53.425Z,8.80
2018-12-19T13:14:58.875Z,8.80
2018-12-19T13:16:04.366Z,8.80
2018-12-19T13:17:09.779Z,8.80
2018-12-19T13:18:15.738Z,8.80
2018-12-19T13:19:21.183Z,8.80
2018-12-19T13:20:27.010Z,8.80
2018-12-19T13:21:32.878Z,8.70
2018-12-19T13:22:39.059Z,8.70
2018-12-19T13:23:44.464Z,8.60
2018-12-19T13:24:49.842Z,8.70
2018-12-19T13:25:55.307Z,8.60
2018-12-19T13:27:00.743Z,8.60
2018-12-19T13:28:06.265Z,8.60
2018-12-19T13:29:11.706Z,8.60
2018-12-19T13:30:17.106Z,8.60
2018-12-19T13:31:22.664Z,8.60
2018-12-19T13:32:28.274Z,8.60
2018-12-19T13:33:33.740Z,8.60
2018-12-19T13:34:39.168Z,8.60
2018-12-19T13:35:44.655Z,8.60
2018-12-19T13:36:50.173Z,8.60
2018-12-19T13:37:55.623Z,8.60
2018-12-19T13:39:01.531Z,8.60
2018-12-19T13:40:07.845Z,8.60
2018-12-19T13:41:13.308Z,8.60
2018-12-19T13:42:18.660Z,8.60
2018-12-19T13:43:24.353Z,8.60
2018-12-19T13:44:30.243Z,8.60
2018-12-19T13:45:36.133Z,8.60
2018-12-19T13:46:41.698Z,8.60
2018-12-19T13:47:47.502Z,8.70
2018-12-19T13:48:53.202Z,8.70
2018-12-19T13:49:58.722Z,8.70
2018-12-19T13:51:04.296Z,8.70
2018-12-19T13:52:09.980Z,8.70
2018-12-19T13:53:15.400Z,8.60
2018-12-19T13:54:21.055Z,8.70
2018-12-19T13:55:26.452Z,8.70
2018-12-19T13:56:31.903Z,8.70
2018-12-19T13:57:37.584Z,8.70
2018-12-19T13:58:43.262Z,8.60
2018-12-19T13:59:49.010Z,8.70
2018-12-19T14:00:54.539Z,8.70
2018-12-19T14:01:59.930Z,8.70
2018-12-19T14:03:11.444Z,8.70
2018-12-19T14:04:17.068Z,8.70
2018-12-19T14:05:22.499Z,8.70
2018-12-19T14:06:27.953Z,8.70
2018-12-19T14:07:33.413Z,8.70
2018-12-19T14:08:38.834Z,8.70
2018-12-19T14:09:44.376Z,8.70
2018-12-19T14:10:49.839Z,8.70
2018-12-19T14:11:55.219Z,8.70
2018-12-19T14:13:00.887Z,8.70
2018-12-19T14:14:06.323Z,8.80
2018-12-19T14:15:11.806Z,8.70
2018-12-19T14:16:17.235Z,8.70
2018-12-19T14:17:22.788Z,8.70
2018-12-19T14:18:28.208Z,8.80
2018-12-19T14:19:34.219Z,8.70
2018-12-19T14:20:39.584Z,8.70
2018-12-19T14:21:45.032Z,8.70
2018-12-19T14:22:50.689Z,8.70
2018-12-19T14:23:56.088Z,8.70
2018-12-19T14:25:01.782Z,8.70
2018-12-19T14:26:07.376Z,8.70
2018-12-19T14:27:12.851Z,8.70
2018-12-19T14:28:18.927Z,8.70
2018-12-19T14:29:25.031Z,8.80
2018-12-19T14:30:30.738Z,8.70
2018-12-19T14:31:36.309Z,8.70
2018-12-19T14:32:42.194Z,8.70
2018-12-19T14:33:47.840Z,8.70
2018-12-19T14:34:53.474Z,8.70
2018-12-19T14:35:59.103Z,8.70
2018-12-19T14:37:04.486Z,8.70
2018-12-19T14:38:09.860Z,8.70